sensor_id;sensor_type;location;lat;lon;timestamp;P1;durP1;ratioP1;P2;durP2;ratioP2
17741;SDS011;8993;51.822;-2.268;2023-08-21T00:00:34;15.36;;;2.64;;
17741;SDS011;8993;51.822;-2.268;2023-08-21T00:05:38;13.79;;;2.74;;
17741;SDS011;8993;51.822;-2.268;2023-08-21T00:10:43;16.55;;;2.97;;
17741;SDS011;8993;51.822;-2.268;2023-08-21T00:15:47;14.75;;;2.83;;
17741;SDS011;8993;51.822;-2.268;2023-08-21T00:20:51;14.27;;;2.47;;
17741;SDS011;8993;51.822;-2.268;2023-08-21T00:25:56;12.76;;;2.60;;
17741;SDS011;8993;51.822;-2.268;2023-08-21T00:31:00;12.48;;;2.73;;
17741;SDS011;8993;51.822;-2.268;2023-08-21T00:36:04;12.96;;;2.61;;
17741;SDS011;8993;51.822;-2.268;2023-08-21T00:41:09;15.14;;;3.19;;
17741;SDS011;8993;51.822;-2.268;2023-08-21T00:46:13;15.43;;;3.15;;
17741;SDS011;8993;51.822;-2.268;2023-08-21T00:51:17;14.94;;;3.07;;
17741;SDS011;8993;51.822;-2.268;2023-08-21T00:56:22;14.22;;;3.23;;
17741;SDS011;8993;51.822;-2.268;2023-08-21T01:01:26;11.57;;;2.79;;
17741;SDS011;8993;51.822;-2.268;2023-08-21T01:06:30;15.16;;;3.09;;
17741;SDS011;8993;51.822;-2.268;2023-08-21T01:11:37;12.98;;;3.13;;
17741;SDS011;8993;51.822;-2.268;2023-08-21T01:16:39;11.73;;;2.93;;
17741;SDS011;8993;51.822;-2.268;2023-08-21T01:21:43;13.18;;;2.99;;
17741;SDS011;8993;51.822;-2.268;2023-08-21T01:26:48;12.69;;;2.51;;
17741;SDS011;8993;51.822;-2.268;2023-08-21T01:31:58;13.76;;;3.21;;
17741;SDS011;8993;51.822;-2.268;2023-08-21T01:36:57;12.51;;;2.76;;
17741;SDS011;8993;51.822;-2.268;2023-08-21T01:42:02;12.77;;;2.86;;
17741;SDS011;8993;51.822;-2.268;2023-08-21T01:47:06;11.14;;;2.71;;
17741;SDS011;8993;51.822;-2.268;2023-08-21T01:52:10;14.75;;;3.36;;
17741;SDS011;8993;51.822;-2.268;2023-08-21T01:57:15;15.77;;;3.45;;
17741;SDS011;8993;51.822;-2.268;2023-08-21T02:02:20;14.92;;;3.86;;
17741;SDS011;8993;51.822;-2.268;2023-08-21T02:07:24;16.13;;;3.74;;
17741;SDS011;8993;51.822;-2.268;2023-08-21T02:12:29;17.95;;;4.13;;
17741;SDS011;8993;51.822;-2.268;2023-08-21T02:17:33;14.55;;;3.24;;
17741;SDS011;8993;51.822;-2.268;2023-08-21T02:22:37;16.07;;;4.01;;
17741;SDS011;8993;51.822;-2.268;2023-08-21T02:27:41;12.48;;;2.93;;
17741;SDS011;8993;51.822;-2.268;2023-08-21T02:32:47;12.78;;;3.09;;
17741;SDS011;8993;51.822;-2.268;2023-08-21T02:37:51;12.20;;;3.15;;
17741;SDS011;8993;51.822;-2.268;2023-08-21T02:42:55;11.93;;;3.20;;
17741;SDS011;8993;51.822;-2.268;2023-08-21T02:48:00;14.80;;;4.07;;
17741;SDS011;8993;51.822;-2.268;2023-08-21T02:53:05;19.47;;;4.69;;
17741;SDS011;8993;51.822;-2.268;2023-08-21T02:58:09;19.44;;;4.17;;
17741;SDS011;8993;51.822;-2.268;2023-08-21T03:03:13;19.18;;;4.69;;
17741;SDS011;8993;51.822;-2.268;2023-08-21T03:08:17;16.74;;;3.85;;
17741;SDS011;8993;51.822;-2.268;2023-08-21T03:13:22;19.79;;;4.40;;
17741;SDS011;8993;51.822;-2.268;2023-08-21T03:18:30;20.78;;;4.94;;
17741;SDS011;8993;51.822;-2.268;2023-08-21T03:23:31;20.89;;;5.14;;
17741;SDS011;8993;51.822;-2.268;2023-08-21T03:28:36;20.99;;;5.10;;
17741;SDS011;8993;51.822;-2.268;2023-08-21T03:33:40;18.20;;;4.53;;
17741;SDS011;8993;51.822;-2.268;2023-08-21T03:38:44;18.31;;;4.63;;
17741;SDS011;8993;51.822;-2.268;2023-08-21T03:43:48;19.05;;;4.84;;
17741;SDS011;8993;51.822;-2.268;2023-08-21T03:48:52;22.09;;;4.94;;
17741;SDS011;8993;51.822;-2.268;2023-08-21T03:53:57;20.05;;;5.40;;
17741;SDS011;8993;51.822;-2.268;2023-08-21T03:59:01;21.37;;;5.19;;
17741;SDS011;8993;51.822;-2.268;2023-08-21T04:04:06;17.07;;;4.45;;
17741;SDS011;8993;51.822;-2.268;2023-08-21T04:09:10;18.66;;;5.51;;
17741;SDS011;8993;51.822;-2.268;2023-08-21T04:14:16;23.74;;;5.63;;
17741;SDS011;8993;51.822;-2.268;2023-08-21T04:19:20;19.00;;;4.99;;
17741;SDS011;8993;51.822;-2.268;2023-08-21T04:24:25;16.81;;;4.47;;
17741;SDS011;8993;51.822;-2.268;2023-08-21T04:29:29;12.50;;;3.93;;
17741;SDS011;8993;51.822;-2.268;2023-08-21T04:34:34;17.00;;;4.68;;
17741;SDS011;8993;51.822;-2.268;2023-08-21T04:39:38;15.56;;;4.20;;
17741;SDS011;8993;51.822;-2.268;2023-08-21T04:44:42;14.89;;;4.16;;
17741;SDS011;8993;51.822;-2.268;2023-08-21T04:49:47;15.82;;;3.72;;
17741;SDS011;8993;51.822;-2.268;2023-08-21T04:54:51;12.74;;;3.06;;
17741;SDS011;8993;51.822;-2.268;2023-08-21T04:59:56;12.68;;;2.97;;
17741;SDS011;8993;51.822;-2.268;2023-08-21T05:05:00;11.89;;;2.96;;
17741;SDS011;8993;51.822;-2.268;2023-08-21T05:10:06;12.05;;;2.91;;
17741;SDS011;8993;51.822;-2.268;2023-08-21T05:15:10;10.87;;;2.76;;
17741;SDS011;8993;51.822;-2.268;2023-08-21T05:20:14;12.97;;;3.00;;
17741;SDS011;8993;51.822;-2.268;2023-08-21T05:25:18;12.20;;;2.72;;
17741;SDS011;8993;51.822;-2.268;2023-08-21T05:30:23;11.98;;;2.80;;
17741;SDS011;8993;51.822;-2.268;2023-08-21T05:35:27;11.43;;;2.60;;
17741;SDS011;8993;51.822;-2.268;2023-08-21T05:40:31;15.77;;;2.94;;
17741;SDS011;8993;51.822;-2.268;2023-08-21T05:45:36;10.69;;;2.67;;
17741;SDS011;8993;51.822;-2.268;2023-08-21T05:50:40;14.05;;;3.03;;
17741;SDS011;8993;51.822;-2.268;2023-08-21T05:55:46;10.44;;;2.20;;
17741;SDS011;8993;51.822;-2.268;2023-08-21T06:00:50;10.39;;;2.37;;
17741;SDS011;8993;51.822;-2.268;2023-08-21T06:05:56;11.49;;;2.43;;
17741;SDS011;8993;51.822;-2.268;2023-08-21T06:11:00;12.32;;;2.35;;
17741;SDS011;8993;51.822;-2.268;2023-08-21T06:16:04;11.45;;;2.05;;
17741;SDS011;8993;51.822;-2.268;2023-08-21T06:21:09;9.38;;;1.99;;
17741;SDS011;8993;51.822;-2.268;2023-08-21T06:26:19;8.65;;;1.93;;
17741;SDS011;8993;51.822;-2.268;2023-08-21T06:31:14;8.81;;;1.85;;
17741;SDS011;8993;51.822;-2.268;2023-08-21T06:36:18;10.32;;;2.00;;
17741;SDS011;8993;51.822;-2.268;2023-08-21T06:41:23;8.41;;;1.65;;
17741;SDS011;8993;51.822;-2.268;2023-08-21T06:46:27;9.74;;;1.64;;
17741;SDS011;8993;51.822;-2.268;2023-08-21T06:51:32;8.20;;;1.47;;
17741;SDS011;8993;51.822;-2.268;2023-08-21T06:56:36;7.88;;;1.51;;
17741;SDS011;8993;51.822;-2.268;2023-08-21T07:01:41;8.28;;;1.43;;
17741;SDS011;8993;51.822;-2.268;2023-08-21T07:06:46;8.09;;;1.29;;
17741;SDS011;8993;51.822;-2.268;2023-08-21T07:11:51;9.05;;;1.26;;
17741;SDS011;8993;51.822;-2.268;2023-08-21T07:16:56;7.64;;;1.24;;
17741;SDS011;8993;51.822;-2.268;2023-08-21T07:22:00;8.24;;;1.16;;
17741;SDS011;8993;51.822;-2.268;2023-08-21T07:27:05;6.21;;;1.09;;
17741;SDS011;8993;51.822;-2.268;2023-08-21T07:32:09;6.77;;;1.10;;
17741;SDS011;8993;51.822;-2.268;2023-08-21T07:37:13;9.24;;;1.31;;
17741;SDS011;8993;51.822;-2.268;2023-08-21T07:42:18;6.18;;;1.06;;
17741;SDS011;8993;51.822;-2.268;2023-08-21T07:47:23;6.24;;;1.12;;
17741;SDS011;8993;51.822;-2.268;2023-08-21T07:52:28;5.63;;;1.06;;
17741;SDS011;8993;51.822;-2.268;2023-08-21T07:57:32;8.56;;;1.13;;
17741;SDS011;8993;51.822;-2.268;2023-08-21T08:07:44;7.46;;;1.07;;
17741;SDS011;8993;51.822;-2.268;2023-08-21T08:12:48;6.77;;;0.99;;
17741;SDS011;8993;51.822;-2.268;2023-08-21T08:17:53;7.72;;;0.96;;
17741;SDS011;8993;51.822;-2.268;2023-08-21T08:22:57;7.78;;;0.97;;
17741;SDS011;8993;51.822;-2.268;2023-08-21T08:28:02;5.43;;;1.02;;
17741;SDS011;8993;51.822;-2.268;2023-08-21T08:33:07;7.36;;;1.04;;
17741;SDS011;8993;51.822;-2.268;2023-08-21T08:38:11;7.01;;;0.98;;
17741;SDS011;8993;51.822;-2.268;2023-08-21T08:43:16;5.33;;;0.89;;
17741;SDS011;8993;51.822;-2.268;2023-08-21T08:48:20;4.76;;;0.75;;
17741;SDS011;8993;51.822;-2.268;2023-08-21T08:53:25;5.12;;;0.86;;
17741;SDS011;8993;51.822;-2.268;2023-08-21T08:58:30;4.49;;;0.69;;
17741;SDS011;8993;51.822;-2.268;2023-08-21T09:03:34;5.88;;;0.90;;
17741;SDS011;8993;51.822;-2.268;2023-08-21T09:08:39;4.85;;;0.81;;
17741;SDS011;8993;51.822;-2.268;2023-08-21T09:13:43;4.62;;;0.73;;
17741;SDS011;8993;51.822;-2.268;2023-08-21T09:18:48;3.27;;;0.65;;
17741;SDS011;8993;51.822;-2.268;2023-08-21T09:23:56;3.46;;;0.63;;
17741;SDS011;8993;51.822;-2.268;2023-08-21T09:28:58;4.24;;;0.66;;
17741;SDS011;8993;51.822;-2.268;2023-08-21T09:34:04;4.46;;;0.72;;
17741;SDS011;8993;51.822;-2.268;2023-08-21T09:39:06;4.57;;;0.67;;
17741;SDS011;8993;51.822;-2.268;2023-08-21T09:44:10;4.47;;;0.66;;
17741;SDS011;8993;51.822;-2.268;2023-08-21T09:49:15;3.81;;;0.66;;
17741;SDS011;8993;51.822;-2.268;2023-08-21T09:54:19;3.57;;;0.62;;
17741;SDS011;8993;51.822;-2.268;2023-08-21T09:59:25;4.44;;;0.66;;
17741;SDS011;8993;51.822;-2.268;2023-08-21T10:04:30;3.80;;;0.56;;
17741;SDS011;8993;51.822;-2.268;2023-08-21T10:09:34;4.89;;;0.66;;
17741;SDS011;8993;51.822;-2.268;2023-08-21T10:14:38;3.98;;;0.57;;
17741;SDS011;8993;51.822;-2.268;2023-08-21T10:19:43;3.66;;;0.54;;
17741;SDS011;8993;51.822;-2.268;2023-08-21T10:24:47;4.36;;;0.46;;
17741;SDS011;8993;51.822;-2.268;2023-08-21T10:29:56;2.95;;;0.54;;
17741;SDS011;8993;51.822;-2.268;2023-08-21T10:34:56;5.58;;;0.53;;
17741;SDS011;8993;51.822;-2.268;2023-08-21T10:40:00;3.11;;;0.46;;
17741;SDS011;8993;51.822;-2.268;2023-08-21T10:45:09;2.80;;;0.48;;
17741;SDS011;8993;51.822;-2.268;2023-08-21T10:50:09;3.89;;;0.62;;
17741;SDS011;8993;51.822;-2.268;2023-08-21T10:55:15;4.78;;;0.68;;
17741;SDS011;8993;51.822;-2.268;2023-08-21T11:00:19;4.81;;;0.65;;
17741;SDS011;8993;51.822;-2.268;2023-08-21T11:05:23;4.85;;;0.64;;
17741;SDS011;8993;51.822;-2.268;2023-08-21T11:10:29;6.10;;;0.71;;
17741;SDS011;8993;51.822;-2.268;2023-08-21T11:15:32;3.61;;;0.65;;
17741;SDS011;8993;51.822;-2.268;2023-08-21T11:20:37;4.36;;;0.76;;
17741;SDS011;8993;51.822;-2.268;2023-08-21T11:25:41;3.13;;;0.56;;
17741;SDS011;8993;51.822;-2.268;2023-08-21T11:30:47;3.83;;;0.58;;
17741;SDS011;8993;51.822;-2.268;2023-08-21T11:35:52;2.85;;;0.47;;
17741;SDS011;8993;51.822;-2.268;2023-08-21T11:40:57;3.63;;;0.57;;
17741;SDS011;8993;51.822;-2.268;2023-08-21T11:46:01;3.36;;;0.59;;
17741;SDS011;8993;51.822;-2.268;2023-08-21T11:51:05;4.48;;;0.65;;
17741;SDS011;8993;51.822;-2.268;2023-08-21T11:56:13;4.27;;;0.62;;
17741;SDS011;8993;51.822;-2.268;2023-08-21T12:01:17;3.54;;;0.53;;
17741;SDS011;8993;51.822;-2.268;2023-08-21T12:06:21;4.23;;;0.65;;
17741;SDS011;8993;51.822;-2.268;2023-08-21T12:11:26;4.01;;;0.57;;
17741;SDS011;8993;51.822;-2.268;2023-08-21T12:16:30;4.08;;;0.60;;
17741;SDS011;8993;51.822;-2.268;2023-08-21T12:21:35;2.76;;;0.61;;
17741;SDS011;8993;51.822;-2.268;2023-08-21T12:26:39;2.51;;;0.53;;
17741;SDS011;8993;51.822;-2.268;2023-08-21T12:31:45;2.45;;;0.57;;
17741;SDS011;8993;51.822;-2.268;2023-08-21T12:36:50;4.54;;;0.78;;
17741;SDS011;8993;51.822;-2.268;2023-08-21T12:41:54;4.45;;;0.50;;
17741;SDS011;8993;51.822;-2.268;2023-08-21T12:46:59;2.57;;;0.47;;
17741;SDS011;8993;51.822;-2.268;2023-08-21T12:52:03;2.43;;;0.36;;
17741;SDS011;8993;51.822;-2.268;2023-08-21T12:57:08;2.87;;;0.44;;
17741;SDS011;8993;51.822;-2.268;2023-08-21T13:02:12;3.09;;;0.44;;
17741;SDS011;8993;51.822;-2.268;2023-08-21T13:07:17;2.13;;;0.43;;
17741;SDS011;8993;51.822;-2.268;2023-08-21T13:12:21;2.20;;;0.44;;
17741;SDS011;8993;51.822;-2.268;2023-08-21T13:17:26;3.75;;;0.49;;
17741;SDS011;8993;51.822;-2.268;2023-08-21T13:22:43;3.97;;;0.64;;
17741;SDS011;8993;51.822;-2.268;2023-08-21T13:27:35;3.20;;;0.53;;
17741;SDS011;8993;51.822;-2.268;2023-08-21T13:32:39;3.98;;;0.61;;
17741;SDS011;8993;51.822;-2.268;2023-08-21T13:37:44;3.16;;;0.55;;
17741;SDS011;8993;51.822;-2.268;2023-08-21T13:42:48;2.46;;;0.52;;
17741;SDS011;8993;51.822;-2.268;2023-08-21T13:47:52;3.70;;;0.51;;
17741;SDS011;8993;51.822;-2.268;2023-08-21T13:52:57;3.00;;;0.52;;
17741;SDS011;8993;51.822;-2.268;2023-08-21T13:58:01;2.64;;;0.49;;
17741;SDS011;8993;51.822;-2.268;2023-08-21T14:08:12;6.04;;;0.50;;
17741;SDS011;8993;51.822;-2.268;2023-08-21T14:13:17;2.09;;;0.45;;
17741;SDS011;8993;51.822;-2.268;2023-08-21T14:18:21;2.84;;;0.53;;
17741;SDS011;8993;51.822;-2.268;2023-08-21T14:23:25;3.96;;;0.53;;
17741;SDS011;8993;51.822;-2.268;2023-08-21T14:28:30;2.70;;;0.44;;
17741;SDS011;8993;51.822;-2.268;2023-08-21T14:33:34;2.44;;;0.54;;
17741;SDS011;8993;51.822;-2.268;2023-08-21T14:38:38;3.02;;;0.60;;
17741;SDS011;8993;51.822;-2.268;2023-08-21T14:43:43;3.24;;;0.58;;
17741;SDS011;8993;51.822;-2.268;2023-08-21T14:48:47;3.66;;;0.69;;
17741;SDS011;8993;51.822;-2.268;2023-08-21T14:53:53;3.87;;;0.69;;
17741;SDS011;8993;51.822;-2.268;2023-08-21T14:58:57;3.80;;;0.71;;
17741;SDS011;8993;51.822;-2.268;2023-08-21T15:04:03;4.46;;;0.80;;
17741;SDS011;8993;51.822;-2.268;2023-08-21T15:09:07;4.39;;;0.74;;
17741;SDS011;8993;51.822;-2.268;2023-08-21T15:14:11;5.05;;;0.74;;
17741;SDS011;8993;51.822;-2.268;2023-08-21T15:19:16;5.36;;;0.76;;
17741;SDS011;8993;51.822;-2.268;2023-08-21T15:24:20;4.66;;;0.71;;
17741;SDS011;8993;51.822;-2.268;2023-08-21T15:29:25;3.95;;;0.72;;
17741;SDS011;8993;51.822;-2.268;2023-08-21T15:34:29;6.61;;;0.80;;
17741;SDS011;8993;51.822;-2.268;2023-08-21T15:39:34;5.53;;;0.76;;
17741;SDS011;8993;51.822;-2.268;2023-08-21T15:44:39;4.51;;;0.65;;
17741;SDS011;8993;51.822;-2.268;2023-08-21T15:49:44;4.71;;;0.71;;
17741;SDS011;8993;51.822;-2.268;2023-08-21T15:54:48;3.88;;;0.67;;
17741;SDS011;8993;51.822;-2.268;2023-08-21T15:59:52;4.42;;;0.75;;
17741;SDS011;8993;51.822;-2.268;2023-08-21T16:04:57;3.84;;;0.71;;
17741;SDS011;8993;51.822;-2.268;2023-08-21T16:10:02;3.71;;;0.74;;
17741;SDS011;8993;51.822;-2.268;2023-08-21T16:15:07;4.85;;;0.81;;
17741;SDS011;8993;51.822;-2.268;2023-08-21T16:20:11;4.11;;;0.74;;
17741;SDS011;8993;51.822;-2.268;2023-08-21T16:25:16;4.93;;;0.85;;
17741;SDS011;8993;51.822;-2.268;2023-08-21T16:30:20;5.04;;;0.74;;
17741;SDS011;8993;51.822;-2.268;2023-08-21T16:35:26;5.01;;;0.76;;
17741;SDS011;8993;51.822;-2.268;2023-08-21T16:40:31;5.54;;;0.81;;
17741;SDS011;8993;51.822;-2.268;2023-08-21T16:45:36;5.17;;;0.81;;
17741;SDS011;8993;51.822;-2.268;2023-08-21T16:50:41;4.11;;;0.80;;
17741;SDS011;8993;51.822;-2.268;2023-08-21T16:55:45;3.86;;;0.75;;
17741;SDS011;8993;51.822;-2.268;2023-08-21T17:00:50;4.49;;;0.72;;
17741;SDS011;8993;51.822;-2.268;2023-08-21T17:05:55;3.38;;;0.64;;
17741;SDS011;8993;51.822;-2.268;2023-08-21T17:10:59;3.04;;;0.62;;
17741;SDS011;8993;51.822;-2.268;2023-08-21T17:16:04;3.74;;;0.64;;
17741;SDS011;8993;51.822;-2.268;2023-08-21T17:21:08;3.77;;;0.77;;
17741;SDS011;8993;51.822;-2.268;2023-08-21T17:26:13;4.46;;;0.82;;
17741;SDS011;8993;51.822;-2.268;2023-08-21T17:31:17;4.22;;;0.98;;
17741;SDS011;8993;51.822;-2.268;2023-08-21T17:36:22;5.46;;;0.87;;
17741;SDS011;8993;51.822;-2.268;2023-08-21T17:41:26;6.64;;;0.87;;
17741;SDS011;8993;51.822;-2.268;2023-08-21T17:46:31;5.64;;;0.79;;
17741;SDS011;8993;51.822;-2.268;2023-08-21T17:51:35;4.29;;;0.88;;
17741;SDS011;8993;51.822;-2.268;2023-08-21T17:56:42;4.33;;;0.81;;
17741;SDS011;8993;51.822;-2.268;2023-08-21T18:01:47;4.36;;;0.77;;
17741;SDS011;8993;51.822;-2.268;2023-08-21T18:06:51;5.65;;;0.88;;
17741;SDS011;8993;51.822;-2.268;2023-08-21T18:11:56;5.39;;;0.87;;
17741;SDS011;8993;51.822;-2.268;2023-08-21T18:17:01;5.81;;;0.85;;
17741;SDS011;8993;51.822;-2.268;2023-08-21T18:22:05;6.99;;;0.92;;
17741;SDS011;8993;51.822;-2.268;2023-08-21T18:27:10;4.95;;;0.89;;
17741;SDS011;8993;51.822;-2.268;2023-08-21T18:32:16;6.21;;;1.05;;
17741;SDS011;8993;51.822;-2.268;2023-08-21T18:37:20;3.92;;;0.96;;
17741;SDS011;8993;51.822;-2.268;2023-08-21T18:42:25;5.74;;;0.88;;
17741;SDS011;8993;51.822;-2.268;2023-08-21T18:47:30;4.77;;;0.99;;
17741;SDS011;8993;51.822;-2.268;2023-08-21T18:52:35;4.85;;;0.95;;
17741;SDS011;8993;51.822;-2.268;2023-08-21T18:57:40;5.61;;;1.07;;
17741;SDS011;8993;51.822;-2.268;2023-08-21T19:02:44;5.85;;;1.13;;
17741;SDS011;8993;51.822;-2.268;2023-08-21T19:07:49;6.40;;;1.10;;
17741;SDS011;8993;51.822;-2.268;2023-08-21T19:12:54;7.06;;;0.91;;
17741;SDS011;8993;51.822;-2.268;2023-08-21T19:18:02;7.00;;;1.22;;
17741;SDS011;8993;51.822;-2.268;2023-08-21T19:23:04;5.85;;;1.12;;
17741;SDS011;8993;51.822;-2.268;2023-08-21T19:28:09;6.63;;;1.15;;
17741;SDS011;8993;51.822;-2.268;2023-08-21T19:33:13;6.66;;;1.09;;
17741;SDS011;8993;51.822;-2.268;2023-08-21T19:41:08;7.10;;;1.21;;
17741;SDS011;8993;51.822;-2.268;2023-08-21T19:43:18;6.20;;;1.30;;
17741;SDS011;8993;51.822;-2.268;2023-08-21T19:58:25;5.78;;;1.19;;
17741;SDS011;8993;51.822;-2.268;2023-08-21T20:03:30;6.22;;;1.20;;
17741;SDS011;8993;51.822;-2.268;2023-08-21T20:08:44;6.52;;;1.28;;
17741;SDS011;8993;51.822;-2.268;2023-08-21T20:13:39;4.87;;;1.30;;
17741;SDS011;8993;51.822;-2.268;2023-08-21T20:18:44;6.99;;;1.41;;
17741;SDS011;8993;51.822;-2.268;2023-08-21T20:23:48;5.64;;;1.52;;
17741;SDS011;8993;51.822;-2.268;2023-08-21T20:28:53;6.80;;;1.58;;
17741;SDS011;8993;51.822;-2.268;2023-08-21T20:34:01;7.79;;;1.47;;
17741;SDS011;8993;51.822;-2.268;2023-08-21T20:39:06;5.58;;;1.48;;
17741;SDS011;8993;51.822;-2.268;2023-08-21T20:44:10;7.34;;;1.58;;
17741;SDS011;8993;51.822;-2.268;2023-08-21T20:49:15;7.31;;;1.49;;
17741;SDS011;8993;51.822;-2.268;2023-08-21T20:54:20;7.96;;;1.64;;
17741;SDS011;8993;51.822;-2.268;2023-08-21T20:59:25;5.10;;;1.35;;
17741;SDS011;8993;51.822;-2.268;2023-08-21T21:04:30;5.63;;;1.21;;
17741;SDS011;8993;51.822;-2.268;2023-08-21T21:09:35;6.19;;;1.32;;
17741;SDS011;8993;51.822;-2.268;2023-08-21T21:14:39;8.47;;;1.45;;
17741;SDS011;8993;51.822;-2.268;2023-08-21T21:19:43;8.07;;;1.45;;
17741;SDS011;8993;51.822;-2.268;2023-08-21T21:24:48;6.02;;;1.47;;
17741;SDS011;8993;51.822;-2.268;2023-08-21T21:29:52;5.91;;;1.39;;
17741;SDS011;8993;51.822;-2.268;2023-08-21T21:34:57;7.81;;;1.45;;
17741;SDS011;8993;51.822;-2.268;2023-08-21T21:40:03;5.77;;;1.40;;
17741;SDS011;8993;51.822;-2.268;2023-08-21T21:45:07;7.08;;;1.52;;
17741;SDS011;8993;51.822;-2.268;2023-08-21T21:50:12;8.62;;;1.68;;
17741;SDS011;8993;51.822;-2.268;2023-08-21T21:55:16;8.87;;;1.74;;
17741;SDS011;8993;51.822;-2.268;2023-08-21T22:00:23;7.54;;;1.54;;
17741;SDS011;8993;51.822;-2.268;2023-08-21T22:05:29;7.21;;;1.63;;
17741;SDS011;8993;51.822;-2.268;2023-08-21T22:10:33;8.36;;;1.59;;
17741;SDS011;8993;51.822;-2.268;2023-08-21T22:15:38;8.49;;;1.55;;
17741;SDS011;8993;51.822;-2.268;2023-08-21T22:20:42;8.49;;;1.54;;
17741;SDS011;8993;51.822;-2.268;2023-08-21T22:25:47;8.60;;;1.65;;
17741;SDS011;8993;51.822;-2.268;2023-08-21T22:30:51;5.20;;;1.40;;
17741;SDS011;8993;51.822;-2.268;2023-08-21T22:35:56;7.99;;;1.63;;
17741;SDS011;8993;51.822;-2.268;2023-08-21T22:41:01;7.86;;;1.56;;
17741;SDS011;8993;51.822;-2.268;2023-08-21T22:46:06;5.73;;;1.27;;
17741;SDS011;8993;51.822;-2.268;2023-08-21T22:51:10;6.37;;;1.37;;
17741;SDS011;8993;51.822;-2.268;2023-08-21T22:56:15;7.24;;;1.43;;
17741;SDS011;8993;51.822;-2.268;2023-08-21T23:01:19;8.01;;;1.35;;
17741;SDS011;8993;51.822;-2.268;2023-08-21T23:06:24;8.08;;;1.53;;
17741;SDS011;8993;51.822;-2.268;2023-08-21T23:16:33;7.49;;;1.41;;
17741;SDS011;8993;51.822;-2.268;2023-08-21T23:21:37;5.96;;;1.32;;
17741;SDS011;8993;51.822;-2.268;2023-08-21T23:26:42;6.59;;;1.27;;
17741;SDS011;8993;51.822;-2.268;2023-08-21T23:31:47;7.57;;;1.51;;
17741;SDS011;8993;51.822;-2.268;2023-08-21T23:36:52;8.37;;;1.38;;
17741;SDS011;8993;51.822;-2.268;2023-08-21T23:41:56;7.77;;;1.40;;
17741;SDS011;8993;51.822;-2.268;2023-08-21T23:47:01;6.21;;;1.34;;
17741;SDS011;8993;51.822;-2.268;2023-08-21T23:52:05;6.04;;;1.44;;
17741;SDS011;8993;51.822;-2.268;2023-08-21T23:57:11;7.98;;;1.43;;
